Time;durP1;ratioP1;P1;durP2;ratioP2;P2;SDS_P1;SDS_P2;PMS_P1;PMS_P2;Temp;Humidity;BMP_temperature;BMP_pressure;BME280_temperature;BME280_humidity;BME280_pressure;Samples;Min_cycle;Max_cycle;Signal;HPM_P1;HPM_P2
2021/09/04 00:02:20;;;;;;;9.40;8.53;;;20.70;99.90;;;;;;4999200;28;20213;-66
2021/09/04 00:04:45;;;;;;;10.67;7.83;;;20.70;99.90;;;;;;5000156;28;20688;-67
2021/09/04 00:07:11;;;;;;;10.30;8.50;;;20.40;99.90;;;;;;5001310;28;20545;-66
2021/09/04 00:09:37;;;;;;;10.80;8.23;;;20.50;99.90;;;;;;5004366;28;20189;-67
2021/09/04 00:12:03;;;;;;;13.83;8.23;;;20.60;99.90;;;;;;5002511;28;20614;-67
2021/09/04 00:14:29;;;;;;;10.00;9.00;;;20.50;99.90;;;;;;5001354;28;20188;-67
2021/09/04 00:16:55;;;;;;;9.20;7.93;;;20.40;99.90;;;;;;5000623;28;20445;-67
2021/09/04 00:19:21;;;;;;;13.83;8.53;;;20.30;99.90;;;;;;5004192;28;20190;-66
2021/09/04 00:21:46;;;;;;;9.03;8.10;;;20.30;99.90;;;;;;4998151;28;20298;-66
2021/09/04 00:24:12;;;;;;;11.87;9.47;;;20.30;99.90;;;;;;5003038;28;20193;-67
2021/09/04 00:26:37;;;;;;;11.60;8.77;;;20.10;99.90;;;;;;5003125;28;20203;-66
2021/09/04 00:29:03;;;;;;;9.13;8.03;;;20.10;99.90;;;;;;5002192;28;20205;-67
2021/09/04 00:31:29;;;;;;;10.17;8.00;;;20.20;99.90;;;;;;5004924;28;20611;-67
2021/09/04 00:33:54;;;;;;;10.30;7.60;;;20.00;99.90;;;;;;5006220;28;20181;-67
2021/09/04 00:36:20;;;;;;;10.50;8.00;;;19.90;99.90;;;;;;5003693;28;20304;-67
2021/09/04 00:38:46;;;;;;;9.23;7.90;;;20.00;99.90;;;;;;5008073;28;20674;-67
2021/09/04 00:41:17;;;;;;;11.00;8.40;;;20.00;99.90;;;;;;5003354;28;20317;-67
2021/09/04 00:43:42;;;;;;;8.40;7.40;;;20.00;99.90;;;;;;5004535;28;20181;-67
2021/09/04 00:46:09;;;;;;;13.23;8.60;;;20.00;99.90;;;;;;5007187;28;20535;-66
2021/09/04 00:48:35;;;;;;;9.57;7.73;;;19.90;99.90;;;;;;5003410;28;20196;-67
2021/09/04 00:51:01;;;;;;;9.40;7.73;;;19.90;99.90;;;;;;5005927;28;20421;-66
2021/09/04 00:53:26;;;;;;;8.83;7.70;;;20.00;99.90;;;;;;5003089;28;20672;-67
2021/09/04 00:55:52;;;;;;;8.83;7.70;;;20.00;99.90;;;;;;5002905;28;20741;-67
2021/09/04 00:58:18;;;;;;;8.80;7.90;;;20.00;99.90;;;;;;5002956;28;20271;-67
2021/09/04 01:00:50;;;;;;;9.00;8.10;;;19.60;99.90;;;;;;5003688;28;20569;-66
2021/09/04 01:03:15;;;;;;;12.93;8.90;;;19.80;99.90;;;;;;5006494;28;20460;-67
2021/09/04 01:05:41;;;;;;;8.90;8.00;;;19.80;99.90;;;;;;5003133;28;20907;-66
2021/09/04 01:08:07;;;;;;;10.17;8.50;;;19.70;99.90;;;;;;5002001;28;20675;-67
2021/09/04 01:10:33;;;;;;;10.20;8.13;;;19.60;99.90;;;;;;5003449;28;20584;-66
2021/09/04 01:12:59;;;;;;;8.03;7.13;;;19.60;99.90;;;;;;5005380;28;20424;-65
2021/09/04 01:15:24;;;;;;;9.03;7.40;;;19.70;99.90;;;;;;5001087;28;20263;-67
2021/09/04 01:17:50;;;;;;;8.87;7.87;;;19.70;99.90;;;;;;5006378;28;20242;-68
2021/09/04 01:20:16;;;;;;;8.57;7.67;;;19.60;99.90;;;;;;5001922;28;20300;-67
2021/09/04 01:22:42;;;;;;;12.73;8.50;;;19.70;99.90;;;;;;5004545;28;20262;-66
2021/09/04 01:25:08;;;;;;;12.00;7.73;;;19.80;99.90;;;;;;5004617;28;20471;-67
2021/09/04 01:27:36;;;;;;;9.00;8.10;;;19.80;99.90;;;;;;5005899;28;20185;-66
2021/09/04 01:30:03;;;;;;;9.93;8.57;;;19.80;99.90;;;;;;5004054;28;20838;-66
2021/09/04 01:32:29;;;;;;;8.37;7.50;;;19.70;99.90;;;;;;5003074;28;20520;-66
2021/09/04 01:35:11;;;;;;;9.03;7.77;;;19.40;99.90;;;;;;5002376;28;20955;-66
2021/09/04 01:37:37;;;;;;;10.70;8.07;;;19.30;99.90;;;;;;5006111;28;20752;-66
2021/09/04 01:40:11;;;;;;;7.63;6.87;;;19.30;99.90;;;;;;4999181;28;20421;-67
2021/09/04 01:42:37;;;;;;;9.30;8.20;;;19.50;99.90;;;;;;5002767;28;20712;-67
2021/09/04 01:45:04;;;;;;;12.30;7.40;;;19.50;99.90;;;;;;5004978;28;20797;-67
2021/09/04 01:47:29;;;;;;;8.30;7.00;;;19.30;99.90;;;;;;5003620;28;20412;-66
2021/09/04 01:49:56;;;;;;;12.00;7.23;;;19.30;99.90;;;;;;4999732;28;20419;-67
2021/09/04 01:52:22;;;;;;;9.27;7.40;;;19.50;99.90;;;;;;5005930;28;20216;-66
2021/09/04 01:54:49;;;;;;;10.10;7.63;;;19.50;99.90;;;;;;5000086;28;20963;-67
2021/09/04 01:57:15;;;;;;;7.93;7.20;;;19.60;99.90;;;;;;5000712;28;20465;-67
2021/09/04 01:59:41;;;;;;;9.57;7.93;;;19.50;99.90;;;;;;5004241;28;20448;-67
2021/09/04 02:02:07;;;;;;;10.10;8.37;;;19.50;99.90;;;;;;5000802;28;20471;-68
2021/09/04 02:04:33;;;;;;;9.80;7.50;;;19.30;99.90;;;;;;5003636;28;20197;-67
2021/09/04 02:07:00;;;;;;;15.20;8.10;;;19.40;99.90;;;;;;4996800;28;20475;-67
2021/09/04 02:09:25;;;;;;;10.10;7.57;;;19.30;99.90;;;;;;5000375;28;20428;-67
2021/09/04 02:11:51;;;;;;;11.53;7.97;;;19.30;99.90;;;;;;5004103;28;20444;-67
2021/09/04 02:14:17;;;;;;;14.10;8.10;;;19.10;99.90;;;;;;5005124;28;20193;-66
2021/09/04 02:16:42;;;;;;;8.90;7.30;;;19.40;99.90;;;;;;5001271;28;20232;-67
2021/09/04 02:19:08;;;;;;;8.60;7.70;;;19.50;99.90;;;;;;5002547;28;20193;-67
2021/09/04 02:21:34;;;;;;;9.13;7.73;;;19.50;99.90;;;;;;5001673;28;20197;-66
2021/09/04 02:24:00;;;;;;;7.70;7.00;;;19.50;99.90;;;;;;5004626;28;20255;-67
2021/09/04 02:26:26;;;;;;;8.27;7.40;;;19.50;99.90;;;;;;5005028;28;20228;-67
2021/09/04 02:28:53;;;;;;;11.00;8.50;;;19.10;99.90;;;;;;5004031;28;20181;-66
2021/09/04 02:31:23;;;;;;;8.90;7.23;;;19.10;99.90;;;;;;5001872;28;20510;-67
2021/09/04 02:33:52;;;;;;;10.40;7.60;;;19.20;99.90;;;;;;5001558;28;20478;-66
2021/09/04 02:36:18;;;;;;;9.33;8.43;;;19.10;99.90;;;;;;5000449;28;20475;-66
2021/09/04 02:38:44;;;;;;;8.90;8.00;;;19.10;99.90;;;;;;5000226;28;20428;-67
2021/09/04 02:41:10;;;;;;;8.80;7.90;;;19.10;99.90;;;;;;5003450;28;20865;-67
2021/09/04 02:43:35;;;;;;;8.53;7.40;;;19.10;99.90;;;;;;5000706;28;20880;-67
2021/09/04 02:46:01;;;;;;;8.50;7.50;;;19.10;99.90;;;;;;5001100;28;20212;-67
2021/09/04 02:48:26;;;;;;;8.80;7.90;;;18.90;99.90;;;;;;5006275;28;20198;-66
2021/09/04 02:50:52;;;;;;;8.63;7.57;;;18.80;99.90;;;;;;4999016;28;20357;-66
2021/09/04 02:53:17;;;;;;;9.57;8.53;;;18.60;99.90;;;;;;5003272;28;20234;-66
2021/09/04 02:55:43;;;;;;;9.87;7.67;;;18.80;99.90;;;;;;5000590;28;20202;-66
2021/09/04 02:58:09;;;;;;;10.10;7.80;;;18.80;99.90;;;;;;5003397;28;20200;-66
2021/09/04 03:00:34;;;;;;;8.90;8.00;;;18.70;99.90;;;;;;5003264;28;20205;-66
2021/09/04 03:03:00;;;;;;;9.30;7.90;;;18.70;99.90;;;;;;5002867;28;20205;-66
2021/09/04 03:05:26;;;;;;;9.80;7.70;;;18.60;99.90;;;;;;5006239;28;20228;-66
2021/09/04 03:07:51;;;;;;;9.23;7.80;;;18.60;99.90;;;;;;5001299;28;20188;-66
2021/09/04 03:10:17;;;;;;;8.80;7.77;;;18.60;99.90;;;;;;5001803;28;20189;-66
2021/09/04 03:12:44;;;;;;;11.00;8.23;;;18.40;99.90;;;;;;5004831;28;20189;-66
2021/09/04 03:15:10;;;;;;;9.23;7.87;;;18.30;99.90;;;;;;5001673;28;20456;-66
2021/09/04 03:17:36;;;;;;;9.87;8.60;;;18.50;99.90;;;;;;5000583;28;20447;-67
2021/09/04 03:20:01;;;;;;;8.07;7.27;;;18.50;99.90;;;;;;5003040;28;20440;-66
2021/09/04 03:22:27;;;;;;;7.83;7.13;;;18.60;99.90;;;;;;5002046;28;20209;-67
2021/09/04 03:24:53;;;;;;;9.83;7.83;;;18.60;99.90;;;;;;4998996;28;20467;-67
2021/09/04 03:27:18;;;;;;;9.43;8.43;;;18.60;99.90;;;;;;5002542;28;20259;-66
2021/09/04 03:29:44;;;;;;;9.03;7.97;;;18.50;99.90;;;;;;5000589;28;20715;-66
2021/09/04 03:32:10;;;;;;;10.13;8.17;;;18.50;99.90;;;;;;5003651;28;20598;-67
2021/09/04 03:34:35;;;;;;;10.40;8.30;;;18.40;99.90;;;;;;5003722;28;20216;-67
2021/09/04 03:37:01;;;;;;;10.30;7.43;;;18.50;99.90;;;;;;5000134;28;20208;-67
2021/09/04 03:39:26;;;;;;;8.40;7.47;;;18.30;99.90;;;;;;5002565;28;20209;-67
2021/09/04 03:41:52;;;;;;;9.50;7.80;;;18.40;99.90;;;;;;5001373;28;20213;-67
2021/09/04 03:44:18;;;;;;;9.90;8.47;;;18.40;99.90;;;;;;5000829;28;20194;-67
2021/09/04 03:46:43;;;;;;;11.27;8.70;;;18.40;99.90;;;;;;5003450;28;20659;-67
2021/09/04 03:49:09;;;;;;;9.03;7.77;;;18.30;99.90;;;;;;4998945;28;20208;-66
2021/09/04 03:51:34;;;;;;;9.13;8.20;;;18.30;99.90;;;;;;5000193;28;20663;-67
2021/09/04 03:54:00;;;;;;;8.83;7.93;;;18.20;99.90;;;;;;5001563;28;20196;-67
2021/09/04 03:56:26;;;;;;;11.73;9.00;;;18.00;99.90;;;;;;5000652;28;20217;-66
2021/09/04 03:58:51;;;;;;;8.50;7.60;;;18.00;99.90;;;;;;4998400;28;20207;-67
2021/09/04 04:01:18;;;;;;;8.17;7.30;;;18.10;99.90;;;;;;4999612;28;20216;-66
2021/09/04 04:03:44;;;;;;;9.50;8.20;;;18.20;99.90;;;;;;5002990;28;20186;-67
2021/09/04 04:06:10;;;;;;;9.47;7.70;;;18.20;99.90;;;;;;5002921;28;20475;-66
2021/09/04 04:08:36;;;;;;;9.67;8.43;;;18.00;99.90;;;;;;5006263;28;20547;-67
2021/09/04 04:11:06;;;;;;;8.73;7.93;;;18.00;99.90;;;;;;5003500;28;20181;-66
2021/09/04 04:13:32;;;;;;;9.43;8.07;;;18.00;99.90;;;;;;5005117;28;20192;-67
2021/09/04 04:15:57;;;;;;;9.30;8.37;;;18.10;99.90;;;;;;5001088;28;20435;-67
2021/09/04 04:18:23;;;;;;;13.80;9.50;;;18.10;99.90;;;;;;5005448;28;20239;-66
2021/09/04 04:20:48;;;;;;;9.10;8.20;;;18.00;99.90;;;;;;5005755;28;20241;-67
2021/09/04 04:23:14;;;;;;;8.70;7.40;;;17.90;99.90;;;;;;5003447;28;20209;-66
2021/09/04 04:25:40;;;;;;;9.03;8.13;;;17.90;99.90;;;;;;5002605;28;20715;-67
2021/09/04 04:28:06;;;;;;;10.73;8.33;;;17.80;99.90;;;;;;5022720;28;20178;-66
2021/09/04 04:30:31;;;;;;;9.43;8.43;;;17.90;99.90;;;;;;5006716;28;20674;-67
2021/09/04 04:32:57;;;;;;;11.03;8.90;;;17.80;99.90;;;;;;5005106;28;20585;-66
2021/09/04 04:35:22;;;;;;;9.60;7.80;;;17.80;99.90;;;;;;5007244;28;20216;-66
2021/09/04 04:37:48;;;;;;;10.07;8.17;;;17.80;99.90;;;;;;5005036;28;20193;-67
2021/09/04 04:40:14;;;;;;;10.67;7.90;;;17.70;99.90;;;;;;4999793;28;20458;-67
2021/09/04 04:42:40;;;;;;;9.67;8.67;;;17.70;99.90;;;;;;5007054;28;20212;-66
2021/09/04 04:45:07;;;;;;;10.20;8.53;;;17.70;99.90;;;;;;5006656;28;20598;-65
2021/09/04 04:47:33;;;;;;;8.83;7.83;;;17.70;99.90;;;;;;5004759;28;20531;-67
2021/09/04 04:50:00;;;;;;;8.83;7.93;;;17.70;99.90;;;;;;5004003;28;21800;-66
2021/09/04 04:52:25;;;;;;;10.67;8.50;;;17.80;99.90;;;;;;5006806;28;20420;-67
2021/09/04 04:54:51;;;;;;;10.57;8.90;;;17.60;99.90;;;;;;5006374;28;20968;-66
2021/09/04 04:57:17;;;;;;;9.83;8.60;;;17.60;99.90;;;;;;5003109;28;20213;-67
2021/09/04 04:59:42;;;;;;;8.83;7.93;;;17.60;99.90;;;;;;5005510;28;20292;-66
2021/09/04 05:02:08;;;;;;;8.43;7.57;;;17.70;99.90;;;;;;5004004;28;20201;-67
2021/09/04 05:04:34;;;;;;;11.80;8.53;;;17.70;99.90;;;;;;5004083;28;20193;-67
2021/09/04 05:06:59;;;;;;;14.00;8.30;;;17.40;99.90;;;;;;5007307;28;20210;-67
2021/09/04 05:09:25;;;;;;;9.97;8.70;;;17.40;99.90;;;;;;5002117;28;20190;-66
2021/09/04 05:11:50;;;;;;;9.63;8.63;;;17.50;99.90;;;;;;5004687;28;20697;-67
2021/09/04 05:14:16;;;;;;;11.47;8.07;;;17.50;99.90;;;;;;5004888;28;20209;-67
2021/09/04 05:16:42;;;;;;;15.63;8.13;;;17.40;99.90;;;;;;5000966;28;20228;-67
2021/09/04 05:19:07;;;;;;;9.90;8.90;;;17.40;99.90;;;;;;5004605;28;20217;-67
2021/09/04 05:21:33;;;;;;;12.47;8.63;;;17.40;99.90;;;;;;5001829;28;20333;-66
2021/09/04 05:23:59;;;;;;;12.33;8.80;;;17.50;99.90;;;;;;5001114;28;20678;-66
2021/09/04 05:26:24;;;;;;;11.57;9.17;;;17.30;99.90;;;;;;5006131;28;20690;-67
2021/09/04 05:28:50;;;;;;;9.30;7.90;;;17.30;99.90;;;;;;5005789;28;20197;-66
2021/09/04 05:31:16;;;;;;;10.30;9.20;;;17.40;99.90;;;;;;5004566;28;20195;-66
2021/09/04 05:33:41;;;;;;;12.70;8.50;;;17.50;99.90;;;;;;5005450;28;20177;-67
2021/09/04 05:36:08;;;;;;;8.83;7.73;;;17.40;99.90;;;;;;5000091;28;20308;-66
2021/09/04 05:38:37;;;;;;;10.00;8.30;;;17.50;99.90;;;;;;5003911;28;20221;-67
2021/09/04 05:41:04;;;;;;;9.03;7.83;;;17.50;99.90;;;;;;5002043;28;20435;-66
2021/09/04 05:43:30;;;;;;;9.30;8.30;;;17.50;99.90;;;;;;5004519;28;20421;-67
2021/09/04 05:45:56;;;;;;;8.70;7.80;;;17.40;99.90;;;;;;5005981;28;20834;-66
2021/09/04 05:48:21;;;;;;;8.87;7.97;;;17.50;99.90;;;;;;5002249;28;20428;-66
2021/09/04 05:50:47;;;;;;;11.73;9.20;;;17.60;99.90;;;;;;5004239;28;20597;-68
2021/09/04 05:53:13;;;;;;;12.13;9.10;;;17.40;99.90;;;;;;5006923;28;20190;-67
2021/09/04 05:55:39;;;;;;;9.60;8.60;;;17.40;99.90;;;;;;5002619;28;20205;-67
2021/09/04 05:58:05;;;;;;;10.07;8.40;;;17.30;99.90;;;;;;5003367;28;20248;-66
2021/09/04 06:00:30;;;;;;;10.60;9.50;;;17.30;99.90;;;;;;5004050;28;20849;-67
2021/09/04 06:02:56;;;;;;;13.03;8.87;;;17.50;99.90;;;;;;5000989;28;20256;-67
2021/09/04 06:05:22;;;;;;;11.20;8.67;;;17.20;99.90;;;;;;5005897;28;20201;-67
2021/09/04 06:07:47;;;;;;;11.83;9.13;;;16.90;99.90;;;;;;5004891;28;20181;-66
2021/09/04 06:10:13;;;;;;;10.60;8.00;;;17.20;99.90;;;;;;4999259;28;20220;-67
2021/09/04 06:12:38;;;;;;;15.43;8.03;;;16.90;99.90;;;;;;5003119;28;20547;-67
2021/09/04 06:15:05;;;;;;;10.23;8.50;;;17.20;99.90;;;;;;5004252;28;20190;-67
2021/09/04 06:17:31;;;;;;;10.60;8.80;;;17.30;99.90;;;;;;5003143;28;20347;-67
2021/09/04 06:19:56;;;;;;;12.20;9.00;;;16.80;99.90;;;;;;5003226;28;20890;-66
2021/09/04 06:22:22;;;;;;;10.30;8.17;;;17.00;99.90;;;;;;5001654;28;20754;-67
2021/09/04 06:24:48;;;;;;;10.13;8.20;;;17.30;99.90;;;;;;5001643;28;20241;-67
2021/09/04 06:27:14;;;;;;;9.63;8.20;;;17.10;99.90;;;;;;5005208;28;20332;-66
2021/09/04 06:29:40;;;;;;;10.90;7.87;;;17.10;99.90;;;;;;5004744;28;20800;-66
2021/09/04 06:32:06;;;;;;;10.30;8.67;;;17.00;99.90;;;;;;5005028;28;20760;-66
2021/09/04 06:34:32;;;;;;;10.00;8.63;;;17.10;99.90;;;;;;5003128;28;20199;-67
2021/09/04 06:36:58;;;;;;;13.53;8.27;;;17.20;99.90;;;;;;5001418;28;20453;-67
2021/09/04 06:39:23;;;;;;;9.93;8.77;;;17.30;99.90;;;;;;5006341;28;20543;-67
2021/09/04 06:41:49;;;;;;;10.73;8.47;;;17.60;99.90;;;;;;5002151;28;20205;-66
2021/09/04 06:44:15;;;;;;;11.70;8.50;;;17.60;99.90;;;;;;5003132;28;20233;-66
2021/09/04 06:46:40;;;;;;;10.37;8.57;;;17.70;99.90;;;;;;5004545;28;20255;-67
2021/09/04 06:49:06;;;;;;;10.00;8.20;;;17.80;99.90;;;;;;4998419;28;20186;-67
2021/09/04 06:51:32;;;;;;;10.17;8.40;;;17.90;99.90;;;;;;5003314;28;20462;-67
2021/09/04 06:53:57;;;;;;;9.53;7.73;;;17.60;99.90;;;;;;5006868;28;20192;-67
2021/09/04 06:56:23;;;;;;;11.50;8.50;;;17.60;99.90;;;;;;5003319;28;20217;-67
2021/09/04 06:58:49;;;;;;;11.83;9.30;;;17.60;99.90;;;;;;5005057;28;20275;-66
2021/09/04 07:01:14;;;;;;;12.50;10.27;;;17.70;99.90;;;;;;5003870;28;20188;-65
2021/09/04 07:03:40;;;;;;;10.70;9.03;;;17.60;99.90;;;;;;5004579;28;20641;-67
2021/09/04 07:06:07;;;;;;;12.00;9.50;;;17.80;99.90;;;;;;5004183;28;20212;-66
2021/09/04 07:08:32;;;;;;;9.40;7.60;;;18.10;99.90;;;;;;5002570;28;20568;-67
2021/09/04 07:10:58;;;;;;;9.70;8.30;;;18.10;99.90;;;;;;5003217;28;20432;-66
2021/09/04 07:13:24;;;;;;;11.00;8.77;;;18.40;99.90;;;;;;5005589;28;20276;-66
2021/09/04 07:15:49;;;;;;;9.80;7.90;;;18.60;99.90;;;;;;5001677;28;20213;-66
2021/09/04 07:18:15;;;;;;;11.00;8.47;;;18.60;99.90;;;;;;5003426;28;20468;-67
2021/09/04 07:20:41;;;;;;;11.10;7.97;;;18.60;99.90;;;;;;5003330;28;20296;-67
2021/09/04 07:23:06;;;;;;;10.30;7.77;;;18.60;99.90;;;;;;5000006;28;20483;-66
2021/09/04 07:25:32;;;;;;;8.70;7.57;;;18.70;99.90;;;;;;5003677;28;20206;-66
2021/09/04 07:27:58;;;;;;;16.63;8.90;;;18.90;99.90;;;;;;5000709;28;20184;-67
2021/09/04 07:30:23;;;;;;;9.83;8.70;;;19.00;99.90;;;;;;5002704;28;20502;-67
2021/09/04 07:32:49;;;;;;;9.27;7.93;;;19.20;99.90;;;;;;4999986;28;20207;-67
2021/09/04 07:35:14;;;;;;;11.03;8.30;;;19.20;99.90;;;;;;5000296;28;20193;-67
2021/09/04 07:37:40;;;;;;;11.27;7.70;;;19.20;99.90;;;;;;5003635;28;20677;-66
2021/09/04 07:40:06;;;;;;;9.53;8.53;;;19.10;99.90;;;;;;5000476;28;20197;-66
2021/09/04 07:42:32;;;;;;;11.67;8.00;;;19.10;99.90;;;;;;5000181;28;20374;-67
2021/09/04 07:44:58;;;;;;;8.90;8.00;;;19.10;99.90;;;;;;5006110;28;20512;-67
2021/09/04 07:47:23;;;;;;;11.73;8.23;;;19.10;99.90;;;;;;5002287;28;20263;-67
2021/09/04 07:49:49;;;;;;;13.50;8.67;;;19.20;99.90;;;;;;5014644;28;20197;-67
2021/09/04 07:52:14;;;;;;;12.73;7.47;;;19.30;99.90;;;;;;5004817;28;20655;-67
2021/09/04 07:54:40;;;;;;;8.17;7.33;;;19.40;99.90;;;;;;5000010;28;20328;-66
2021/09/04 07:57:05;;;;;;;9.03;7.77;;;19.40;99.90;;;;;;5003245;28;20731;-65
2021/09/04 07:59:31;;;;;;;8.57;7.77;;;19.50;99.90;;;;;;5001471;28;20216;-67
2021/09/04 08:01:57;;;;;;;9.40;7.93;;;19.40;99.90;;;;;;4999854;28;20201;-66
2021/09/04 08:04:22;;;;;;;7.97;6.90;;;19.40;99.90;;;;;;5001331;28;20423;-66
2021/09/04 08:06:48;;;;;;;20.60;9.10;;;19.40;99.90;;;;;;5000851;28;20199;-67
2021/09/04 08:09:13;;;;;;;9.37;7.70;;;19.50;99.90;;;;;;4997343;28;20200;-68
2021/09/04 08:11:39;;;;;;;9.40;7.30;;;19.50;99.90;;;;;;5001665;28;20188;-68
2021/09/04 08:14:05;;;;;;;9.60;8.03;;;19.70;99.90;;;;;;4998628;28;20743;-67
2021/09/04 08:16:30;;;;;;;9.50;7.40;;;19.60;99.90;;;;;;4998620;28;20221;-67
2021/09/04 08:18:56;;;;;;;10.60;8.63;;;19.70;99.90;;;;;;5004300;28;20691;-67
2021/09/04 08:21:22;;;;;;;13.43;9.20;;;19.70;99.90;;;;;;5001674;28;20233;-67
2021/09/04 08:23:48;;;;;;;11.37;8.87;;;19.60;99.90;;;;;;5003387;28;20542;-67
2021/09/04 08:26:14;;;;;;;9.03;7.90;;;19.70;99.90;;;;;;5001356;28;20220;-67
2021/09/04 08:28:39;;;;;;;14.67;9.57;;;19.70;99.90;;;;;;5000252;28;20191;-67
2021/09/04 08:31:05;;;;;;;9.13;8.03;;;19.70;99.90;;;;;;5002523;28;20204;-67
2021/09/04 08:33:31;;;;;;;9.60;7.60;;;19.80;99.90;;;;;;5001206;28;20201;-67
2021/09/04 08:35:56;;;;;;;9.37;7.90;;;19.90;99.90;;;;;;5000268;28;20231;-68
2021/09/04 08:38:22;;;;;;;10.87;6.80;;;20.00;99.90;;;;;;5001731;28;20240;-68
2021/09/04 08:40:49;;;;;;;8.53;7.30;;;19.80;99.90;;;;;;4999564;28;20200;-67
2021/09/04 08:43:15;;;;;;;9.63;8.13;;;19.80;99.90;;;;;;5003540;28;20388;-67
2021/09/04 08:45:41;;;;;;;8.33;7.37;;;19.90;99.90;;;;;;5000763;28;21021;-67
2021/09/04 08:48:09;;;;;;;11.53;8.90;;;20.00;99.90;;;;;;5002815;28;20200;-67
2021/09/04 08:50:36;;;;;;;8.97;8.03;;;20.00;99.90;;;;;;5001552;28;20189;-67
2021/09/04 08:53:03;;;;;;;11.40;7.93;;;20.10;99.90;;;;;;5002862;28;20570;-66
2021/09/04 08:55:29;;;;;;;8.63;7.73;;;20.20;99.90;;;;;;5004873;28;20465;-67
2021/09/04 08:57:55;;;;;;;8.00;6.80;;;20.20;99.90;;;;;;5004853;28;20424;-67
2021/09/04 09:00:47;;;;;;;9.33;7.57;;;20.30;99.90;;;;;;5003838;28;20698;-67
2021/09/04 09:03:25;;;;;;;11.20;8.00;;;20.40;99.90;;;;;;5001107;28;20547;-67
2021/09/04 09:05:52;;;;;;;11.40;8.17;;;20.50;99.90;;;;;;5002778;28;20451;-67
2021/09/04 09:08:23;;;;;;;8.90;8.00;;;20.60;99.90;;;;;;5007594;28;20432;-67
2021/09/04 09:10:49;;;;;;;11.53;7.83;;;20.60;99.90;;;;;;5000641;28;20425;-67
2021/09/04 09:13:19;;;;;;;10.00;8.57;;;20.80;99.90;;;;;;5004217;28;20443;-67
2021/09/04 09:15:45;;;;;;;9.27;8.37;;;20.70;99.90;;;;;;5003900;28;20467;-67
2021/09/04 09:18:14;;;;;;;11.70;8.00;;;20.70;99.90;;;;;;5005603;28;20456;-67
2021/09/04 09:20:41;;;;;;;8.90;8.07;;;20.80;99.90;;;;;;5003537;28;20507;-67
2021/09/04 09:23:18;;;;;;;8.53;7.70;;;20.80;99.90;;;;;;5002388;28;20472;-67
2021/09/04 09:25:46;;;;;;;8.37;7.57;;;20.80;99.90;;;;;;5004476;28;20448;-68
2021/09/04 09:28:17;;;;;;;10.90;8.57;;;21.00;99.90;;;;;;5002888;28;20499;-67
2021/09/04 09:30:50;;;;;;;9.10;7.80;;;21.00;99.90;;;;;;5002325;28;20497;-67
2021/09/04 09:33:20;;;;;;;8.83;7.83;;;21.10;99.90;;;;;;5003325;28;20455;-67
2021/09/04 09:35:48;;;;;;;8.37;7.57;;;21.10;99.90;;;;;;5006356;28;20527;-66
2021/09/04 09:38:19;;;;;;;10.60;8.53;;;21.20;99.90;;;;;;5002953;28;20467;-67
2021/09/04 09:40:46;;;;;;;10.17;9.10;;;21.40;99.90;;;;;;5000981;28;20546;-67
2021/09/04 09:43:17;;;;;;;10.27;7.63;;;21.40;99.90;;;;;;5005294;28;20899;-67
2021/09/04 09:45:49;;;;;;;11.33;7.83;;;21.60;99.90;;;;;;5003360;28;20459;-67
2021/09/04 09:48:44;;;;;;;9.53;7.83;;;21.60;99.90;;;;;;5002499;28;20424;-67
2021/09/04 09:51:14;;;;;;;8.43;7.37;;;21.70;99.90;;;;;;4993091;28;20572;-67
2021/09/04 09:53:40;;;;;;;9.07;8.13;;;21.90;99.90;;;;;;5004620;28;20428;-67
2021/09/04 09:56:06;;;;;;;11.30;8.37;;;21.90;99.90;;;;;;5004714;28;20805;-67
2021/09/04 09:58:33;;;;;;;9.03;8.10;;;21.90;99.90;;;;;;5003832;28;20428;-67
2021/09/04 10:00:59;;;;;;;10.53;8.43;;;22.00;99.90;;;;;;4999386;28;20523;-67
2021/09/04 10:03:28;;;;;;;8.17;7.33;;;22.00;99.90;;;;;;5003455;28;20472;-67
2021/09/04 10:05:55;;;;;;;8.90;8.00;;;22.10;99.90;;;;;;5017018;28;20504;-67
2021/09/04 10:08:23;;;;;;;9.87;8.03;;;22.20;99.90;;;;;;5003725;28;20514;-66
2021/09/04 10:10:49;;;;;;;9.13;8.20;;;22.30;99.90;;;;;;5004350;28;20419;-67
2021/09/04 10:13:16;;;;;;;10.40;9.30;;;22.30;99.90;;;;;;5000668;28;20828;-66
2021/09/04 10:15:46;;;;;;;10.23;7.90;;;22.30;99.90;;;;;;5003729;28;20474;-66
2021/09/04 10:18:14;;;;;;;7.67;6.87;;;22.30;99.90;;;;;;5000684;28;20447;-66
2021/09/04 10:20:40;;;;;;;8.43;6.97;;;22.40;99.90;;;;;;5002401;28;20450;-66
2021/09/04 10:23:35;;;;;;;7.57;6.83;;;22.50;99.90;;;;;;5001785;28;20484;-66
2021/09/04 10:26:29;;;;;;;9.77;7.33;;;22.50;99.90;;;;;;5004372;28;20224;-66
2021/09/04 10:29:16;;;;;;;9.50;7.63;;;22.60;99.90;;;;;;4995054;28;20907;-65
2021/09/04 10:31:56;;;;;;;8.87;7.27;;;22.70;99.90;;;;;;5001513;28;20821;-67
2021/09/04 10:34:36;;;;;;;7.93;7.10;;;22.80;99.90;;;;;;5005548;28;20416;-66
2021/09/04 10:37:11;;;;;;;8.20;7.27;;;22.90;99.90;;;;;;5001102;28;21295;-68
2021/09/04 10:39:53;;;;;;;7.97;7.10;;;23.00;99.90;;;;;;5001981;28;20443;-66
2021/09/04 10:42:22;;;;;;;9.70;6.67;;;23.10;99.90;;;;;;5003734;28;20475;-67
2021/09/04 10:44:49;;;;;;;8.13;7.33;;;23.20;99.90;;;;;;5003839;28;20420;-67
2021/09/04 10:47:16;;;;;;;9.27;6.53;;;23.30;99.90;;;;;;5000617;28;20550;-66
2021/09/04 10:49:44;;;;;;;8.73;7.70;;;23.40;99.90;;;;;;5003753;28;20468;-67
2021/09/04 10:52:10;;;;;;;7.27;6.57;;;23.40;99.90;;;;;;5000174;28;20425;-67
2021/09/04 10:54:56;;;;;;;8.50;7.60;;;23.50;99.90;;;;;;5003281;28;20539;-67
2021/09/04 10:57:21;;;;;;;7.07;6.37;;;23.60;99.90;;;;;;5001979;28;20533;-66
2021/09/04 10:59:56;;;;;;;8.20;6.97;;;23.70;99.90;;;;;;5000993;28;20444;-66
2021/09/04 11:02:22;;;;;;;7.37;6.67;;;23.70;99.90;;;;;;5003532;28;20686;-66
2021/09/04 11:04:57;;;;;;;8.70;7.20;;;23.80;99.90;;;;;;5001209;28;20436;-66
2021/09/04 11:07:45;;;;;;;7.57;6.73;;;23.90;99.90;;;;;;5003897;28;20231;-66
2021/09/04 11:10:24;;;;;;;7.67;6.97;;;23.90;99.90;;;;;;5002999;28;20479;-67
2021/09/04 11:13:12;;;;;;;8.57;7.10;;;24.00;99.90;;;;;;4997723;28;21000;-66
2021/09/04 11:15:39;;;;;;;8.10;6.83;;;24.00;99.90;;;;;;5002895;28;20946;-66
2021/09/04 11:18:05;;;;;;;8.13;7.27;;;24.10;99.90;;;;;;5001569;28;20491;-67
2021/09/04 11:20:30;;;;;;;7.47;6.67;;;24.20;99.90;;;;;;5001637;28;20889;-66
2021/09/04 11:22:57;;;;;;;8.67;7.37;;;24.40;99.90;;;;;;5004610;28;20295;-68
2021/09/04 11:25:23;;;;;;;7.33;6.53;;;24.50;99.90;;;;;;5001925;28;20220;-67
2021/09/04 11:27:52;;;;;;;7.07;6.37;;;24.60;99.90;;;;;;5001133;28;20420;-67
2021/09/04 11:30:20;;;;;;;7.83;7.03;;;24.70;99.90;;;;;;4998562;28;20459;-67
2021/09/04 11:32:46;;;;;;;6.73;6.13;;;24.70;99.90;;;;;;5003118;28;20436;-67
2021/09/04 11:35:12;;;;;;;8.47;7.00;;;24.90;99.90;;;;;;5002428;28;20440;-67
2021/09/04 11:37:42;;;;;;;6.77;6.07;;;25.00;99.90;;;;;;5000097;28;20534;-67
2021/09/04 11:40:10;;;;;;;7.20;6.60;;;25.20;99.90;;;;;;5000351;28;20580;-67
2021/09/04 11:42:46;;;;;;;7.73;5.90;;;25.30;99.90;;;;;;4999573;28;20472;-67
2021/09/04 11:45:21;;;;;;;7.60;5.90;;;25.50;99.90;;;;;;4998351;28;20462;-67
2021/09/04 11:47:48;;;;;;;6.10;5.50;;;25.70;99.90;;;;;;5002202;28;20462;-67
2021/09/04 11:50:25;;;;;;;6.07;5.50;;;25.80;99.90;;;;;;4998624;28;20444;-67
2021/09/04 11:52:51;;;;;;;8.47;6.07;;;26.00;99.90;;;;;;5003460;28;20428;-66
2021/09/04 11:55:21;;;;;;;8.03;6.20;;;26.20;99.90;;;;;;5004930;28;20435;-66
2021/09/04 11:57:49;;;;;;;9.13;7.20;;;26.40;99.90;;;;;;5001146;28;20178;-66
2021/09/04 12:00:21;;;;;;;9.80;5.77;;;26.70;99.90;;;;;;5003239;28;20920;-68
2021/09/04 12:03:00;;;;;;;6.03;5.43;;;27.20;99.90;;;;;;5003021;28;20480;-66
2021/09/04 12:05:30;;;;;;;6.90;6.20;;;28.10;99.90;;;;;;5002079;28;20455;-67
2021/09/04 12:08:05;;;;;;;6.40;5.80;;;29.10;99.90;;;;;;5001417;28;20433;-66
2021/09/04 12:10:34;;;;;;;6.13;5.60;;;30.00;99.90;;;;;;5000818;28;20448;-66
2021/09/04 12:13:04;;;;;;;7.10;5.70;;;30.70;97.90;;;;;;4998375;28;20642;-66
2021/09/04 12:15:32;;;;;;;6.13;5.60;;;31.20;95.60;;;;;;5000711;28;20460;-66
2021/09/04 12:18:06;;;;;;;6.73;5.80;;;31.70;92.90;;;;;;5001457;28;20448;-67
2021/09/04 12:20:45;;;;;;;6.40;5.53;;;32.30;91.10;;;;;;5002257;28;20429;-66
2021/09/04 12:23:22;;;;;;;5.60;5.10;;;32.70;84.90;;;;;;5004110;28;20464;-67
2021/09/04 12:25:50;;;;;;;5.70;5.00;;;33.00;81.80;;;;;;5000342;28;20439;-66
2021/09/04 12:28:23;;;;;;;5.40;4.90;;;33.40;79.00;;;;;;5005332;28;20411;-67
2021/09/04 12:31:07;;;;;;;5.50;5.00;;;33.50;77.00;;;;;;5005896;28;20429;-66
2021/09/04 12:33:56;;;;;;;6.00;5.50;;;33.50;76.40;;;;;;5008815;28;20948;-66
2021/09/04 12:36:27;;;;;;;6.57;5.13;;;34.10;73.10;;;;;;5004696;28;20464;-66
2021/09/04 12:38:58;;;;;;;5.30;4.87;;;34.70;70.20;;;;;;5002676;28;20807;-67
2021/09/04 12:41:34;;;;;;;4.93;4.53;;;35.00;65.50;;;;;;5006828;28;20430;-66
2021/09/04 12:44:05;;;;;;;5.33;4.83;;;35.10;64.40;;;;;;5002898;28;20425;-66
2021/09/04 12:46:42;;;;;;;6.20;5.00;;;35.50;63.60;;;;;;5006916;28;20519;-66